KCNK

Blosser Municipal Airport

Concordia, Kansas, USA
METAR KCNK 210405Z AUTO 07004KT 3/4SM BR VV005 02/02 A2977 RMK AO2 T00220022
Observed Flight Rules
Jan-21 @ 04:05 UTC (32 minutes ago) Instrument Flight Rules
Wind Visibility Clouds Conditions
70° at 4 knots 3/4 miles
  • Vertical visibility at 500' AGL
  • Mist
Temperatures Readings
Current 2°C / 36°F
Dewpoint 2°C / 36°F
Humidity 100%
Altimeter 29.77" Hg
Pressure 1008 hPa
Elevation 447
METAR KCNK 210405Z AUTO 07004KT 3/4SM BR VV005 02/02 A2977 RMK AO2 T00220022
Observed Flight Rules
Jan-21 @ 04:05 UTC
(32 minutes ago)
LIFR
Wind Visibility
70° at 4 knots 3/4 miles
Clouds
  • Vertical visibility at 500' AGL
Conditions
  • Mist
Temperature Dewpoint
2°C / 36°F 2°C / 36°F
Humidity Altimeter Pressure
100% 29.77" Hg 1008 hPa